Terminal Aerodrome Forecast
Issued by NWS

Home | Current Version | Previous Version | Text Only | Print | Product List | Glossary Off
Versions: 1 2 3 4 5 6 7 8 9 10 11 12 13 14 15 16 17 18 19 20

431
FTUS42 KMHX 141735
TAFOAJ
TAF
KOAJ 141735Z 1418/1518 03005KT P6SM BKN020
     FM150200 VRB03KT P6SM SCT008 BKN015
     FM151300 01006KT P6SM BKN020
      AMD LTD TO CLD VIS AND WIND=

USA.gov is the U.S. government's official web portal to all federal, state and local government web resources and services.